sensor_id;sensor_type;location;lat;lon;timestamp;P1;durP1;ratioP1;P2;durP2;ratioP2
76617;SDS011;65509;42.816;74.648;2023-02-22T00:00:35;15.30;;;4.43;;
76617;SDS011;65509;42.816;74.648;2023-02-22T00:03:20;17.48;;;4.50;;
76617;SDS011;65509;42.816;74.648;2023-02-22T00:05:50;11.90;;;3.75;;
76617;SDS011;65509;42.816;74.648;2023-02-22T00:08:18;16.75;;;4.45;;
76617;SDS011;65509;42.816;74.648;2023-02-22T00:10:44;22.65;;;5.93;;
76617;SDS011;65509;42.816;74.648;2023-02-22T00:13:10;25.73;;;7.30;;
76617;SDS011;65509;42.816;74.648;2023-02-22T00:15:37;20.30;;;5.75;;
76617;SDS011;65509;42.816;74.648;2023-02-22T00:18:05;18.98;;;4.78;;
76617;SDS011;65509;42.816;74.648;2023-02-22T00:20:31;21.85;;;4.95;;
76617;SDS011;65509;42.816;74.648;2023-02-22T00:22:57;15.57;;;4.97;;
76617;SDS011;65509;42.816;74.648;2023-02-22T00:25:25;22.90;;;6.20;;
76617;SDS011;65509;42.816;74.648;2023-02-22T00:27:51;14.25;;;4.05;;
76617;SDS011;65509;42.816;74.648;2023-02-22T00:30:19;16.98;;;4.63;;
76617;SDS011;65509;42.816;74.648;2023-02-22T00:32:45;15.10;;;4.30;;
76617;SDS011;65509;42.816;74.648;2023-02-22T00:35:11;15.38;;;4.05;;
76617;SDS011;65509;42.816;74.648;2023-02-22T00:37:36;10.88;;;3.45;;
76617;SDS011;65509;42.816;74.648;2023-02-22T00:40:06;12.70;;;3.50;;
76617;SDS011;65509;42.816;74.648;2023-02-22T00:42:32;12.73;;;4.30;;
76617;SDS011;65509;42.816;74.648;2023-02-22T00:44:57;30.02;;;11.45;;
76617;SDS011;65509;42.816;74.648;2023-02-22T00:47:23;39.53;;;13.35;;
76617;SDS011;65509;42.816;74.648;2023-02-22T00:49:50;28.67;;;9.82;;
76617;SDS011;65509;42.816;74.648;2023-02-22T00:52:15;29.58;;;12.10;;
76617;SDS011;65509;42.816;74.648;2023-02-22T00:54:41;21.40;;;9.07;;
76617;SDS011;65509;42.816;74.648;2023-02-22T00:57:06;16.15;;;6.68;;
76617;SDS011;65509;42.816;74.648;2023-02-22T00:59:32;19.20;;;6.38;;
76617;SDS011;65509;42.816;74.648;2023-02-22T01:01:57;20.95;;;7.20;;
76617;SDS011;65509;42.816;74.648;2023-02-22T01:04:22;24.85;;;8.10;;
76617;SDS011;65509;42.816;74.648;2023-02-22T01:06:48;24.63;;;7.28;;
76617;SDS011;65509;42.816;74.648;2023-02-22T01:09:13;23.55;;;7.63;;
76617;SDS011;65509;42.816;74.648;2023-02-22T01:11:39;33.55;;;12.27;;
76617;SDS011;65509;42.816;74.648;2023-02-22T01:14:05;33.33;;;9.73;;
76617;SDS011;65509;42.816;74.648;2023-02-22T01:16:34;20.15;;;6.65;;
76617;SDS011;65509;42.816;74.648;2023-02-22T01:18:59;19.58;;;6.38;;
76617;SDS011;65509;42.816;74.648;2023-02-22T01:21:25;25.95;;;6.47;;
76617;SDS011;65509;42.816;74.648;2023-02-22T01:23:50;14.00;;;5.25;;
76617;SDS011;65509;42.816;74.648;2023-02-22T01:26:16;21.13;;;5.40;;
76617;SDS011;65509;42.816;74.648;2023-02-22T01:28:41;15.35;;;5.00;;
76617;SDS011;65509;42.816;74.648;2023-02-22T01:31:07;16.73;;;5.65;;
76617;SDS011;65509;42.816;74.648;2023-02-22T01:33:32;23.23;;;6.13;;
76617;SDS011;65509;42.816;74.648;2023-02-22T01:35:58;27.48;;;5.82;;
76617;SDS011;65509;42.816;74.648;2023-02-22T01:38:24;37.10;;;7.30;;
76617;SDS011;65509;42.816;74.648;2023-02-22T01:40:49;23.10;;;6.55;;
76617;SDS011;65509;42.816;74.648;2023-02-22T01:46:06;19.38;;;7.18;;
76617;SDS011;65509;42.816;74.648;2023-02-22T01:48:37;21.08;;;5.07;;
76617;SDS011;65509;42.816;74.648;2023-02-22T01:53:54;20.30;;;6.10;;
76617;SDS011;65509;42.816;74.648;2023-02-22T01:56:21;28.75;;;9.57;;
76617;SDS011;65509;42.816;74.648;2023-02-22T01:59:09;40.28;;;11.32;;
76617;SDS011;65509;42.816;74.648;2023-02-22T02:01:34;26.88;;;9.52;;
76617;SDS011;65509;42.816;74.648;2023-02-22T02:04:01;29.23;;;7.28;;
76617;SDS011;65509;42.816;74.648;2023-02-22T02:06:30;30.48;;;6.40;;
76617;SDS011;65509;42.816;74.648;2023-02-22T02:11:58;33.72;;;8.63;;
76617;SDS011;65509;42.816;74.648;2023-02-22T02:14:30;36.45;;;10.32;;
76617;SDS011;65509;42.816;74.648;2023-02-22T02:16:58;39.03;;;13.07;;
76617;SDS011;65509;42.816;74.648;2023-02-22T02:22:10;31.27;;;11.57;;
76617;SDS011;65509;42.816;74.648;2023-02-22T02:27:13;39.28;;;14.93;;
76617;SDS011;65509;42.816;74.648;2023-02-22T02:29:58;32.25;;;13.48;;
76617;SDS011;65509;42.816;74.648;2023-02-22T02:35:03;21.92;;;5.60;;
76617;SDS011;65509;42.816;74.648;2023-02-22T02:42:34;20.95;;;6.25;;
76617;SDS011;65509;42.816;74.648;2023-02-22T02:45:04;16.25;;;5.53;;
76617;SDS011;65509;42.816;74.648;2023-02-22T02:47:34;18.70;;;5.60;;
76617;SDS011;65509;42.816;74.648;2023-02-22T02:52:29;23.25;;;5.65;;
76617;SDS011;65509;42.816;74.648;2023-02-22T02:54:56;19.13;;;5.43;;
76617;SDS011;65509;42.816;74.648;2023-02-22T02:57:22;28.65;;;8.57;;
76617;SDS011;65509;42.816;74.648;2023-02-22T02:59:48;26.73;;;7.78;;
76617;SDS011;65509;42.816;74.648;2023-02-22T03:05:03;27.83;;;7.47;;
76617;SDS011;65509;42.816;74.648;2023-02-22T03:10:01;21.83;;;7.20;;
76617;SDS011;65509;42.816;74.648;2023-02-22T03:20:03;26.63;;;9.90;;
76617;SDS011;65509;42.816;74.648;2023-02-22T03:22:39;32.50;;;11.82;;
76617;SDS011;65509;42.816;74.648;2023-02-22T03:25:19;19.67;;;10.13;;
76617;SDS011;65509;42.816;74.648;2023-02-22T03:27:47;24.20;;;9.63;;
76617;SDS011;65509;42.816;74.648;2023-02-22T03:30:17;30.13;;;11.77;;
76617;SDS011;65509;42.816;74.648;2023-02-22T03:32:46;38.35;;;14.93;;
76617;SDS011;65509;42.816;74.648;2023-02-22T03:35:17;40.28;;;17.95;;
76617;SDS011;65509;42.816;74.648;2023-02-22T03:37:44;40.60;;;17.85;;
76617;SDS011;65509;42.816;74.648;2023-02-22T03:40:13;50.13;;;16.15;;
76617;SDS011;65509;42.816;74.648;2023-02-22T03:42:39;37.80;;;15.65;;
76617;SDS011;65509;42.816;74.648;2023-02-22T03:45:06;46.60;;;16.55;;
76617;SDS011;65509;42.816;74.648;2023-02-22T03:47:41;40.20;;;14.05;;
76617;SDS011;65509;42.816;74.648;2023-02-22T03:52:36;30.73;;;10.80;;
76617;SDS011;65509;42.816;74.648;2023-02-22T03:55:02;26.13;;;10.30;;
76617;SDS011;65509;42.816;74.648;2023-02-22T03:57:31;33.83;;;11.95;;
76617;SDS011;65509;42.816;74.648;2023-02-22T03:59:58;29.45;;;12.25;;
76617;SDS011;65509;42.816;74.648;2023-02-22T04:02:23;42.25;;;15.43;;
76617;SDS011;65509;42.816;74.648;2023-02-22T04:04:48;40.70;;;16.40;;
76617;SDS011;65509;42.816;74.648;2023-02-22T04:07:14;37.42;;;15.82;;
76617;SDS011;65509;42.816;74.648;2023-02-22T04:09:40;27.13;;;12.88;;
76617;SDS011;65509;42.816;74.648;2023-02-22T04:12:05;22.20;;;8.45;;
76617;SDS011;65509;42.816;74.648;2023-02-22T04:14:31;18.40;;;5.85;;
76617;SDS011;65509;42.816;74.648;2023-02-22T04:16:56;15.20;;;5.20;;
76617;SDS011;65509;42.816;74.648;2023-02-22T04:19:22;14.43;;;5.40;;
76617;SDS011;65509;42.816;74.648;2023-02-22T04:21:47;20.05;;;7.13;;
76617;SDS011;65509;42.816;74.648;2023-02-22T04:24:13;13.32;;;5.05;;
76617;SDS011;65509;42.816;74.648;2023-02-22T04:26:38;11.40;;;4.38;;
76617;SDS011;65509;42.816;74.648;2023-02-22T04:29:04;11.07;;;3.55;;
76617;SDS011;65509;42.816;74.648;2023-02-22T04:31:29;11.10;;;3.88;;
76617;SDS011;65509;42.816;74.648;2023-02-22T04:33:55;8.95;;;2.95;;
76617;SDS011;65509;42.816;74.648;2023-02-22T04:36:20;6.75;;;2.20;;
76617;SDS011;65509;42.816;74.648;2023-02-22T04:38:46;6.93;;;3.00;;
76617;SDS011;65509;42.816;74.648;2023-02-22T04:41:12;6.95;;;2.63;;
76617;SDS011;65509;42.816;74.648;2023-02-22T04:43:37;7.68;;;2.45;;
76617;SDS011;65509;42.816;74.648;2023-02-22T04:46:02;10.20;;;2.63;;
76617;SDS011;65509;42.816;74.648;2023-02-22T04:48:28;9.23;;;2.97;;
76617;SDS011;65509;42.816;74.648;2023-02-22T04:50:54;9.63;;;3.15;;
76617;SDS011;65509;42.816;74.648;2023-02-22T04:53:19;13.05;;;3.42;;
76617;SDS011;65509;42.816;74.648;2023-02-22T04:55:45;6.85;;;2.80;;
76617;SDS011;65509;42.816;74.648;2023-02-22T04:58:10;8.75;;;2.55;;
76617;SDS011;65509;42.816;74.648;2023-02-22T05:00:36;8.80;;;2.88;;
76617;SDS011;65509;42.816;74.648;2023-02-22T05:03:01;7.78;;;2.50;;
76617;SDS011;65509;42.816;74.648;2023-02-22T05:05:27;8.18;;;2.25;;
76617;SDS011;65509;42.816;74.648;2023-02-22T05:07:52;12.20;;;2.70;;
76617;SDS011;65509;42.816;74.648;2023-02-22T05:10:18;14.65;;;3.08;;
76617;SDS011;65509;42.816;74.648;2023-02-22T05:12:43;7.97;;;2.42;;
76617;SDS011;65509;42.816;74.648;2023-02-22T05:15:09;9.65;;;2.20;;
76617;SDS011;65509;42.816;74.648;2023-02-22T05:17:35;8.52;;;2.83;;
76617;SDS011;65509;42.816;74.648;2023-02-22T05:20:00;21.33;;;2.75;;
76617;SDS011;65509;42.816;74.648;2023-02-22T05:22:27;8.15;;;2.60;;
76617;SDS011;65509;42.816;74.648;2023-02-22T05:24:52;11.05;;;4.05;;
76617;SDS011;65509;42.816;74.648;2023-02-22T05:27:18;38.60;;;4.20;;
76617;SDS011;65509;42.816;74.648;2023-02-22T05:29:43;10.85;;;2.47;;
76617;SDS011;65509;42.816;74.648;2023-02-22T05:32:09;6.40;;;1.92;;
76617;SDS011;65509;42.816;74.648;2023-02-22T05:34:36;11.35;;;3.05;;
76617;SDS011;65509;42.816;74.648;2023-02-22T05:37:01;7.93;;;2.38;;
76617;SDS011;65509;42.816;74.648;2023-02-22T05:39:27;12.27;;;2.25;;
76617;SDS011;65509;42.816;74.648;2023-02-22T05:41:53;9.15;;;1.90;;
76617;SDS011;65509;42.816;74.648;2023-02-22T05:44:18;6.97;;;2.20;;
76617;SDS011;65509;42.816;74.648;2023-02-22T05:46:44;14.55;;;3.20;;
76617;SDS011;65509;42.816;74.648;2023-02-22T05:49:09;12.70;;;3.40;;
76617;SDS011;65509;42.816;74.648;2023-02-22T05:51:34;19.10;;;4.47;;
76617;SDS011;65509;42.816;74.648;2023-02-22T05:54:00;10.55;;;3.67;;
76617;SDS011;65509;42.816;74.648;2023-02-22T05:56:26;9.65;;;3.50;;
76617;SDS011;65509;42.816;74.648;2023-02-22T05:58:52;7.93;;;2.92;;
76617;SDS011;65509;42.816;74.648;2023-02-22T06:01:17;15.20;;;2.90;;
76617;SDS011;65509;42.816;74.648;2023-02-22T06:03:45;13.90;;;3.45;;
76617;SDS011;65509;42.816;74.648;2023-02-22T06:06:11;9.77;;;3.05;;
76617;SDS011;65509;42.816;74.648;2023-02-22T06:08:36;12.05;;;3.28;;
76617;SDS011;65509;42.816;74.648;2023-02-22T06:11:04;9.45;;;3.25;;
76617;SDS011;65509;42.816;74.648;2023-02-22T06:14:05;12.82;;;3.47;;
76617;SDS011;65509;42.816;74.648;2023-02-22T06:16:30;14.32;;;3.47;;
76617;SDS011;65509;42.816;74.648;2023-02-22T06:18:56;11.43;;;2.75;;
76617;SDS011;65509;42.816;74.648;2023-02-22T06:21:22;8.70;;;3.13;;
76617;SDS011;65509;42.816;74.648;2023-02-22T06:23:47;8.63;;;2.97;;
76617;SDS011;65509;42.816;74.648;2023-02-22T06:26:16;14.85;;;3.75;;
76617;SDS011;65509;42.816;74.648;2023-02-22T06:28:41;18.38;;;4.60;;
76617;SDS011;65509;42.816;74.648;2023-02-22T06:31:07;13.52;;;4.20;;
76617;SDS011;65509;42.816;74.648;2023-02-22T06:33:32;17.02;;;4.07;;
76617;SDS011;65509;42.816;74.648;2023-02-22T06:35:58;17.60;;;4.63;;
76617;SDS011;65509;42.816;74.648;2023-02-22T06:38:25;10.32;;;3.83;;
76617;SDS011;65509;42.816;74.648;2023-02-22T06:40:52;8.45;;;3.20;;
76617;SDS011;65509;42.816;74.648;2023-02-22T06:43:19;24.52;;;4.70;;
76617;SDS011;65509;42.816;74.648;2023-02-22T06:45:45;14.15;;;3.28;;
76617;SDS011;65509;42.816;74.648;2023-02-22T06:48:10;13.70;;;3.58;;
76617;SDS011;65509;42.816;74.648;2023-02-22T06:50:36;12.73;;;4.15;;
76617;SDS011;65509;42.816;74.648;2023-02-22T06:53:01;11.00;;;3.75;;
76617;SDS011;65509;42.816;74.648;2023-02-22T06:55:28;10.32;;;3.90;;
76617;SDS011;65509;42.816;74.648;2023-02-22T06:57:54;21.08;;;4.60;;
76617;SDS011;65509;42.816;74.648;2023-02-22T07:00:21;11.77;;;3.60;;
76617;SDS011;65509;42.816;74.648;2023-02-22T07:02:47;13.35;;;4.18;;
76617;SDS011;65509;42.816;74.648;2023-02-22T07:05:12;7.50;;;2.90;;
76617;SDS011;65509;42.816;74.648;2023-02-22T07:07:39;17.30;;;4.15;;
76617;SDS011;65509;42.816;74.648;2023-02-22T07:10:06;9.63;;;3.45;;
76617;SDS011;65509;42.816;74.648;2023-02-22T07:12:32;29.35;;;5.47;;
76617;SDS011;65509;42.816;74.648;2023-02-22T07:14:57;7.25;;;2.65;;
76617;SDS011;65509;42.816;74.648;2023-02-22T07:17:26;6.78;;;2.28;;
76617;SDS011;65509;42.816;74.648;2023-02-22T07:19:54;9.82;;;2.95;;
76617;SDS011;65509;42.816;74.648;2023-02-22T07:22:19;11.20;;;3.72;;
76617;SDS011;65509;42.816;74.648;2023-02-22T07:24:45;20.77;;;4.43;;
76617;SDS011;65509;42.816;74.648;2023-02-22T07:27:11;8.88;;;3.33;;
76617;SDS011;65509;42.816;74.648;2023-02-22T07:29:37;14.15;;;3.95;;
76617;SDS011;65509;42.816;74.648;2023-02-22T07:32:02;8.00;;;3.03;;
76617;SDS011;65509;42.816;74.648;2023-02-22T07:34:28;10.50;;;3.40;;
76617;SDS011;65509;42.816;74.648;2023-02-22T07:36:54;8.45;;;2.90;;
76617;SDS011;65509;42.816;74.648;2023-02-22T07:39:20;9.43;;;3.35;;
76617;SDS011;65509;42.816;74.648;2023-02-22T07:41:45;24.98;;;4.10;;
76617;SDS011;65509;42.816;74.648;2023-02-22T07:44:10;8.82;;;2.67;;
76617;SDS011;65509;42.816;74.648;2023-02-22T07:46:37;9.52;;;2.95;;
76617;SDS011;65509;42.816;74.648;2023-02-22T07:49:02;9.93;;;2.85;;
76617;SDS011;65509;42.816;74.648;2023-02-22T07:51:27;7.95;;;2.22;;
76617;SDS011;65509;42.816;74.648;2023-02-22T07:53:59;7.72;;;2.50;;
76617;SDS011;65509;42.816;74.648;2023-02-22T07:59:51;11.50;;;3.10;;
76617;SDS011;65509;42.816;74.648;2023-02-22T08:04:50;16.50;;;3.17;;
76617;SDS011;65509;42.816;74.648;2023-02-22T08:07:15;9.75;;;2.50;;
76617;SDS011;65509;42.816;74.648;2023-02-22T08:09:43;10.52;;;2.92;;
76617;SDS011;65509;42.816;74.648;2023-02-22T08:12:08;12.25;;;3.83;;
76617;SDS011;65509;42.816;74.648;2023-02-22T08:14:36;12.10;;;3.13;;
76617;SDS011;65509;42.816;74.648;2023-02-22T08:17:07;12.95;;;2.80;;
76617;SDS011;65509;42.816;74.648;2023-02-22T08:19:35;7.72;;;2.53;;
76617;SDS011;65509;42.816;74.648;2023-02-22T08:22:00;8.80;;;2.83;;
76617;SDS011;65509;42.816;74.648;2023-02-22T08:24:29;9.32;;;2.35;;
76617;SDS011;65509;42.816;74.648;2023-02-22T08:26:57;10.38;;;2.95;;
76617;SDS011;65509;42.816;74.648;2023-02-22T08:29:25;11.13;;;2.97;;
76617;SDS011;65509;42.816;74.648;2023-02-22T08:31:57;7.30;;;2.38;;
76617;SDS011;65509;42.816;74.648;2023-02-22T08:34:23;12.35;;;3.88;;
76617;SDS011;65509;42.816;74.648;2023-02-22T08:36:48;12.93;;;3.08;;
76617;SDS011;65509;42.816;74.648;2023-02-22T08:39:14;10.93;;;2.75;;
76617;SDS011;65509;42.816;74.648;2023-02-22T08:41:39;9.63;;;2.85;;
76617;SDS011;65509;42.816;74.648;2023-02-22T08:44:04;17.48;;;3.03;;
76617;SDS011;65509;42.816;74.648;2023-02-22T08:46:33;17.65;;;2.83;;
76617;SDS011;65509;42.816;74.648;2023-02-22T08:48:58;6.45;;;1.98;;
76617;SDS011;65509;42.816;74.648;2023-02-22T08:51:24;12.95;;;2.47;;
76617;SDS011;65509;42.816;74.648;2023-02-22T08:53:50;11.55;;;2.97;;
76617;SDS011;65509;42.816;74.648;2023-02-22T08:56:15;10.43;;;2.90;;
76617;SDS011;65509;42.816;74.648;2023-02-22T08:58:41;16.23;;;3.63;;
76617;SDS011;65509;42.816;74.648;2023-02-22T09:01:06;8.70;;;2.85;;
76617;SDS011;65509;42.816;74.648;2023-02-22T09:03:32;9.90;;;2.65;;
76617;SDS011;65509;42.816;74.648;2023-02-22T09:06:03;9.95;;;2.72;;
76617;SDS011;65509;42.816;74.648;2023-02-22T09:08:35;12.38;;;2.78;;
76617;SDS011;65509;42.816;74.648;2023-02-22T09:11:06;11.60;;;2.20;;
76617;SDS011;65509;42.816;74.648;2023-02-22T09:13:48;14.55;;;3.05;;
76617;SDS011;65509;42.816;74.648;2023-02-22T09:16:29;13.20;;;2.53;;
76617;SDS011;65509;42.816;74.648;2023-02-22T09:18:57;13.45;;;2.30;;
76617;SDS011;65509;42.816;74.648;2023-02-22T09:21:26;9.60;;;2.70;;
76617;SDS011;65509;42.816;74.648;2023-02-22T09:23:51;8.65;;;2.45;;
76617;SDS011;65509;42.816;74.648;2023-02-22T09:26:45;14.10;;;2.65;;
76617;SDS011;65509;42.816;74.648;2023-02-22T09:29:11;11.77;;;2.30;;
76617;SDS011;65509;42.816;74.648;2023-02-22T09:31:37;9.43;;;2.28;;
76617;SDS011;65509;42.816;74.648;2023-02-22T09:34:11;11.25;;;2.88;;
76617;SDS011;65509;42.816;74.648;2023-02-22T09:36:56;15.95;;;3.63;;
76617;SDS011;65509;42.816;74.648;2023-02-22T09:39:22;16.92;;;3.38;;
76617;SDS011;65509;42.816;74.648;2023-02-22T09:44:35;8.00;;;2.25;;
76617;SDS011;65509;42.816;74.648;2023-02-22T09:47:03;10.77;;;2.88;;
76617;SDS011;65509;42.816;74.648;2023-02-22T09:49:39;9.38;;;2.83;;
76617;SDS011;65509;42.816;74.648;2023-02-22T09:52:23;9.23;;;2.70;;
76617;SDS011;65509;42.816;74.648;2023-02-22T09:54:53;10.10;;;2.67;;
76617;SDS011;65509;42.816;74.648;2023-02-22T09:57:25;6.75;;;1.85;;
76617;SDS011;65509;42.816;74.648;2023-02-22T10:02:59;11.25;;;2.50;;
76617;SDS011;65509;42.816;74.648;2023-02-22T10:05:33;12.45;;;2.53;;
76617;SDS011;65509;42.816;74.648;2023-02-22T10:08:07;10.07;;;2.70;;
76617;SDS011;65509;42.816;74.648;2023-02-22T10:10:38;7.45;;;2.90;;
76617;SDS011;65509;42.816;74.648;2023-02-22T10:13:12;13.98;;;3.15;;
76617;SDS011;65509;42.816;74.648;2023-02-22T10:16:42;8.75;;;2.78;;
76617;SDS011;65509;42.816;74.648;2023-02-22T10:18:43;16.65;;;3.08;;
76617;SDS011;65509;42.816;74.648;2023-02-22T10:24:08;11.48;;;3.45;;
76617;SDS011;65509;42.816;74.648;2023-02-22T10:26:42;7.53;;;2.58;;
76617;SDS011;65509;42.816;74.648;2023-02-22T10:29:12;11.30;;;2.70;;
76617;SDS011;65509;42.816;74.648;2023-02-22T10:31:40;7.97;;;2.60;;
76617;SDS011;65509;42.816;74.648;2023-02-22T10:34:11;12.32;;;3.15;;
76617;SDS011;65509;42.816;74.648;2023-02-22T10:36:37;13.18;;;2.72;;
76617;SDS011;65509;42.816;74.648;2023-02-22T10:39:15;9.77;;;3.63;;
76617;SDS011;65509;42.816;74.648;2023-02-22T10:41:47;8.18;;;3.38;;
76617;SDS011;65509;42.816;74.648;2023-02-22T10:44:13;10.07;;;4.07;;
76617;SDS011;65509;42.816;74.648;2023-02-22T10:46:39;15.63;;;4.05;;
76617;SDS011;65509;42.816;74.648;2023-02-22T10:49:06;12.15;;;3.92;;
76617;SDS011;65509;42.816;74.648;2023-02-22T10:51:32;10.60;;;3.53;;
76617;SDS011;65509;42.816;74.648;2023-02-22T10:54:02;16.38;;;5.05;;
76617;SDS011;65509;42.816;74.648;2023-02-22T10:56:33;13.02;;;4.85;;
76617;SDS011;65509;42.816;74.648;2023-02-22T10:58:59;18.38;;;4.95;;
76617;SDS011;65509;42.816;74.648;2023-02-22T11:03:59;15.80;;;3.50;;
76617;SDS011;65509;42.816;74.648;2023-02-22T11:06:24;8.45;;;2.53;;
76617;SDS011;65509;42.816;74.648;2023-02-22T11:08:50;10.75;;;2.70;;
76617;SDS011;65509;42.816;74.648;2023-02-22T11:11:21;12.52;;;2.70;;
76617;SDS011;65509;42.816;74.648;2023-02-22T11:13:52;14.38;;;2.78;;
76617;SDS011;65509;42.816;74.648;2023-02-22T11:18:50;11.02;;;3.40;;
76617;SDS011;65509;42.816;74.648;2023-02-22T11:21:23;10.65;;;2.78;;
76617;SDS011;65509;42.816;74.648;2023-02-22T11:23:48;13.90;;;3.55;;
76617;SDS011;65509;42.816;74.648;2023-02-22T11:26:16;9.00;;;2.70;;
76617;SDS011;65509;42.816;74.648;2023-02-22T11:28:44;8.73;;;2.45;;
76617;SDS011;65509;42.816;74.648;2023-02-22T11:33:40;10.23;;;2.28;;
76617;SDS011;65509;42.816;74.648;2023-02-22T11:36:10;10.13;;;2.55;;
76617;SDS011;65509;42.816;74.648;2023-02-22T11:38:44;16.75;;;4.85;;
76617;SDS011;65509;42.816;74.648;2023-02-22T11:41:18;8.40;;;3.03;;
76617;SDS011;65509;42.816;74.648;2023-02-22T11:43:47;9.30;;;2.90;;
76617;SDS011;65509;42.816;74.648;2023-02-22T11:46:20;10.07;;;2.40;;
76617;SDS011;65509;42.816;74.648;2023-02-22T11:48:54;12.30;;;2.00;;
76617;SDS011;65509;42.816;74.648;2023-02-22T11:53:50;6.55;;;1.85;;
76617;SDS011;65509;42.816;74.648;2023-02-22T11:56:38;6.90;;;1.95;;
76617;SDS011;65509;42.816;74.648;2023-02-22T12:01:36;31.50;;;4.22;;
76617;SDS011;65509;42.816;74.648;2023-02-22T12:04:26;44.13;;;6.85;;
76617;SDS011;65509;42.816;74.648;2023-02-22T12:12:07;62.28;;;8.48;;
76617;SDS011;65509;42.816;74.648;2023-02-22T12:19:34;57.63;;;6.97;;
76617;SDS011;65509;42.816;74.648;2023-02-22T12:22:13;39.65;;;8.05;;
76617;SDS011;65509;42.816;74.648;2023-02-22T12:25:15;23.10;;;5.32;;
76617;SDS011;65509;42.816;74.648;2023-02-22T12:27:32;20.73;;;4.15;;
76617;SDS011;65509;42.816;74.648;2023-02-22T12:30:07;37.88;;;5.90;;
76617;SDS011;65509;42.816;74.648;2023-02-22T12:32:39;31.38;;;5.78;;
76617;SDS011;65509;42.816;74.648;2023-02-22T12:35:18;55.70;;;8.35;;
76617;SDS011;65509;42.816;74.648;2023-02-22T12:40:59;41.50;;;5.13;;
76617;SDS011;65509;42.816;74.648;2023-02-22T12:43:27;33.20;;;5.35;;
76617;SDS011;65509;42.816;74.648;2023-02-22T12:45:54;41.42;;;5.80;;
76617;SDS011;65509;42.816;74.648;2023-02-22T12:48:28;51.75;;;6.97;;
76617;SDS011;65509;42.816;74.648;2023-02-22T12:51:01;71.72;;;9.82;;
76617;SDS011;65509;42.816;74.648;2023-02-22T12:53:30;44.33;;;8.50;;
76617;SDS011;65509;42.816;74.648;2023-02-22T12:59:28;59.53;;;10.90;;
76617;SDS011;65509;42.816;74.648;2023-02-22T13:01:28;38.38;;;9.07;;
76617;SDS011;65509;42.816;74.648;2023-02-22T13:03:57;83.65;;;26.42;;
76617;SDS011;65509;42.816;74.648;2023-02-22T13:08:57;78.57;;;19.27;;
76617;SDS011;65509;42.816;74.648;2023-02-22T13:11:32;93.82;;;21.02;;
76617;SDS011;65509;42.816;74.648;2023-02-22T13:23:57;63.17;;;20.85;;
76617;SDS011;65509;42.816;74.648;2023-02-22T13:26:45;71.97;;;21.40;;
76617;SDS011;65509;42.816;74.648;2023-02-22T13:31:49;65.95;;;19.77;;
76617;SDS011;65509;42.816;74.648;2023-02-22T13:49:37;58.58;;;22.63;;
76617;SDS011;65509;42.816;74.648;2023-02-22T13:52:08;58.88;;;21.35;;
76617;SDS011;65509;42.816;74.648;2023-02-22T13:54:46;49.05;;;19.08;;
76617;SDS011;65509;42.816;74.648;2023-02-22T13:57:26;46.40;;;18.17;;
76617;SDS011;65509;42.816;74.648;2023-02-22T14:02:58;56.75;;;19.63;;
76617;SDS011;65509;42.816;74.648;2023-02-22T14:05:50;49.67;;;19.85;;
76617;SDS011;65509;42.816;74.648;2023-02-22T14:11:07;62.08;;;17.00;;
76617;SDS011;65509;42.816;74.648;2023-02-22T14:16:25;43.10;;;15.75;;
76617;SDS011;65509;42.816;74.648;2023-02-22T14:21:30;29.58;;;11.63;;
76617;SDS011;65509;42.816;74.648;2023-02-22T14:24:40;43.22;;;12.63;;
76617;SDS011;65509;42.816;74.648;2023-02-22T14:27:01;26.65;;;10.57;;
76617;SDS011;65509;42.816;74.648;2023-02-22T14:29:27;35.38;;;11.07;;
76617;SDS011;65509;42.816;74.648;2023-02-22T14:34:37;85.00;;;16.92;;
76617;SDS011;65509;42.816;74.648;2023-02-22T14:39:48;32.10;;;12.15;;
76617;SDS011;65509;42.816;74.648;2023-02-22T14:42:16;44.13;;;14.20;;
76617;SDS011;65509;42.816;74.648;2023-02-22T14:44:43;37.40;;;11.85;;
76617;SDS011;65509;42.816;74.648;2023-02-22T14:47:15;32.97;;;12.40;;
76617;SDS011;65509;42.816;74.648;2023-02-22T14:49:44;39.67;;;14.73;;
76617;SDS011;65509;42.816;74.648;2023-02-22T14:52:21;39.92;;;14.90;;
76617;SDS011;65509;42.816;74.648;2023-02-22T14:54:55;31.00;;;12.25;;
76617;SDS011;65509;42.816;74.648;2023-02-22T15:00:20;48.95;;;14.95;;
76617;SDS011;65509;42.816;74.648;2023-02-22T15:02:48;47.00;;;17.95;;
76617;SDS011;65509;42.816;74.648;2023-02-22T15:05:15;52.83;;;21.73;;
76617;SDS011;65509;42.816;74.648;2023-02-22T15:07:49;73.25;;;31.42;;
76617;SDS011;65509;42.816;74.648;2023-02-22T15:13:01;67.63;;;28.70;;
76617;SDS011;65509;42.816;74.648;2023-02-22T15:15:34;69.30;;;26.80;;
76617;SDS011;65509;42.816;74.648;2023-02-22T15:18:00;67.53;;;26.20;;
76617;SDS011;65509;42.816;74.648;2023-02-22T15:20:30;53.65;;;22.90;;
76617;SDS011;65509;42.816;74.648;2023-02-22T15:22:57;97.00;;;21.25;;
76617;SDS011;65509;42.816;74.648;2023-02-22T15:25:24;54.08;;;16.08;;
76617;SDS011;65509;42.816;74.648;2023-02-22T15:27:51;49.35;;;16.38;;
76617;SDS011;65509;42.816;74.648;2023-02-22T15:30:19;38.15;;;15.02;;
76617;SDS011;65509;42.816;74.648;2023-02-22T15:32:44;38.58;;;14.55;;
76617;SDS011;65509;42.816;74.648;2023-02-22T15:35:17;74.10;;;16.48;;
76617;SDS011;65509;42.816;74.648;2023-02-22T15:37:44;42.75;;;14.10;;
76617;SDS011;65509;42.816;74.648;2023-02-22T15:40:16;36.13;;;13.85;;
76617;SDS011;65509;42.816;74.648;2023-02-22T15:42:44;45.78;;;15.35;;
76617;SDS011;65509;42.816;74.648;2023-02-22T15:45:13;44.00;;;16.02;;
76617;SDS011;65509;42.816;74.648;2023-02-22T15:47:39;33.30;;;13.55;;
76617;SDS011;65509;42.816;74.648;2023-02-22T15:50:17;50.78;;;14.70;;
76617;SDS011;65509;42.816;74.648;2023-02-22T15:53:31;51.72;;;13.35;;
76617;SDS011;65509;42.816;74.648;2023-02-22T15:59:21;48.08;;;12.68;;
76617;SDS011;65509;42.816;74.648;2023-02-22T16:01:47;39.60;;;13.00;;
76617;SDS011;65509;42.816;74.648;2023-02-22T16:04:23;45.70;;;14.30;;
76617;SDS011;65509;42.816;74.648;2023-02-22T16:06:51;35.45;;;11.90;;
76617;SDS011;65509;42.816;74.648;2023-02-22T16:09:21;44.97;;;12.40;;
76617;SDS011;65509;42.816;74.648;2023-02-22T16:11:50;28.33;;;12.05;;
76617;SDS011;65509;42.816;74.648;2023-02-22T16:17:37;43.30;;;15.07;;
76617;SDS011;65509;42.816;74.648;2023-02-22T16:22:36;50.78;;;15.27;;
76617;SDS011;65509;42.816;74.648;2023-02-22T16:27:40;33.88;;;13.02;;
76617;SDS011;65509;42.816;74.648;2023-02-22T16:32:46;41.17;;;14.20;;
76617;SDS011;65509;42.816;74.648;2023-02-22T16:35:11;52.13;;;14.75;;
76617;SDS011;65509;42.816;74.648;2023-02-22T16:37:46;46.15;;;13.27;;
76617;SDS011;65509;42.816;74.648;2023-02-22T16:40:44;46.28;;;13.93;;
76617;SDS011;65509;42.816;74.648;2023-02-22T16:43:07;48.15;;;15.40;;
76617;SDS011;65509;42.816;74.648;2023-02-22T16:48:35;39.05;;;13.45;;
76617;SDS011;65509;42.816;74.648;2023-02-22T16:51:06;52.17;;;14.57;;
76617;SDS011;65509;42.816;74.648;2023-02-22T16:53:32;35.13;;;12.93;;
76617;SDS011;65509;42.816;74.648;2023-02-22T16:56:00;49.33;;;13.57;;
76617;SDS011;65509;42.816;74.648;2023-02-22T16:58:26;44.33;;;12.20;;
76617;SDS011;65509;42.816;74.648;2023-02-22T17:00:55;39.67;;;11.48;;
76617;SDS011;65509;42.816;74.648;2023-02-22T17:03:21;42.97;;;10.00;;